createdAt,value
2018-08-16T00:02:17.348Z,5.50
2018-08-16T00:07:20.588Z,5.27
2018-08-16T00:12:23.682Z,6.40
2018-08-16T00:17:27.102Z,4.80
2018-08-16T00:22:30.319Z,4.80
2018-08-16T00:27:33.449Z,7.70
2018-08-16T00:32:37.056Z,5.03
2018-08-16T00:37:42.163Z,6.33
2018-08-16T00:42:45.209Z,4.73
2018-08-16T00:47:48.384Z,4.50
2018-08-16T00:52:51.445Z,4.70
2018-08-16T00:57:55.661Z,6.63
2018-08-16T01:02:58.734Z,4.33
2018-08-16T01:08:01.853Z,5.87
2018-08-16T01:13:05.117Z,5.40
2018-08-16T01:18:08.351Z,5.20
2018-08-16T01:23:11.455Z,5.53
2018-08-16T01:28:14.539Z,6.53
2018-08-16T01:33:17.765Z,5.13
2018-08-16T01:38:21.107Z,5.87
2018-08-16T01:43:24.173Z,5.97
2018-08-16T01:48:27.321Z,5.50
2018-08-16T01:53:30.447Z,7.67
2018-08-16T01:58:33.657Z,7.23
2018-08-16T02:03:36.836Z,12.07
2018-08-16T02:08:40.076Z,5.83
2018-08-16T02:13:43.125Z,7.53
2018-08-16T02:18:46.303Z,5.73
2018-08-16T02:23:49.431Z,7.87
2018-08-16T02:28:52.606Z,5.57
2018-08-16T02:33:56.026Z,7.10
2018-08-16T02:38:59.117Z,5.23
2018-08-16T02:44:02.158Z,6.93
2018-08-16T02:49:05.342Z,6.80
2018-08-16T02:54:08.387Z,4.50
2018-08-16T02:59:11.425Z,5.53
2018-08-16T03:04:14.461Z,6.20
2018-08-16T03:09:17.853Z,8.43
2018-08-16T03:14:20.953Z,5.60
2018-08-16T03:19:24.010Z,6.60
2018-08-16T03:24:27.040Z,5.33
2018-08-16T03:29:30.066Z,5.00
2018-08-16T03:34:33.278Z,5.40
2018-08-16T03:39:36.315Z,5.73
2018-08-16T03:44:39.313Z,6.00
2018-08-16T03:49:42.330Z,6.33
2018-08-16T03:54:45.381Z,6.90
2018-08-16T03:59:48.383Z,9.60
2018-08-16T04:04:51.429Z,5.93
2018-08-16T04:09:54.504Z,11.50
2018-08-16T04:14:57.589Z,8.47
2018-08-16T04:20:00.697Z,9.57
2018-08-16T04:25:04.414Z,6.10
2018-08-16T04:30:07.477Z,6.53
2018-08-16T04:35:10.502Z,7.23
2018-08-16T04:40:13.557Z,5.90
2018-08-16T04:45:16.617Z,10.50
2018-08-16T04:50:19.658Z,13.10
2018-08-16T04:55:22.990Z,5.80
2018-08-16T05:00:26.055Z,17.00
2018-08-16T05:05:29.134Z,11.73
2018-08-16T05:10:32.249Z,12.63
2018-08-16T05:15:35.328Z,7.80
2018-08-16T05:20:38.417Z,8.03
2018-08-16T05:25:42.679Z,10.87
2018-08-16T05:30:45.911Z,8.57
2018-08-16T05:35:49.081Z,9.67
2018-08-16T05:40:52.219Z,13.30
2018-08-16T05:45:55.302Z,15.27
2018-08-16T05:50:58.403Z,10.40
2018-08-16T05:56:01.561Z,7.90
2018-08-16T06:01:05.008Z,12.43
2018-08-16T06:06:09.322Z,10.17
2018-08-16T06:11:12.765Z,9.00
2018-08-16T06:16:16.211Z,10.23
2018-08-16T06:21:19.370Z,13.23
2018-08-16T06:26:22.775Z,10.37
2018-08-16T06:31:26.273Z,13.30
2018-08-16T06:36:29.764Z,13.67
2018-08-16T06:41:33.359Z,17.13
2018-08-16T06:46:37.153Z,17.97
2018-08-16T06:51:40.566Z,11.63
2018-08-16T06:56:44.007Z,13.50
2018-08-16T07:01:47.398Z,19.60
2018-08-16T07:06:50.666Z,12.20
2018-08-16T07:11:54.034Z,15.70
2018-08-16T07:16:57.222Z,16.70
2018-08-16T07:22:00.342Z,16.73
2018-08-16T07:27:03.517Z,18.97
2018-08-16T07:32:06.650Z,12.13
2018-08-16T07:37:09.746Z,13.97
2018-08-16T07:42:12.881Z,12.67
2018-08-16T07:47:16.055Z,15.70
2018-08-16T07:52:19.209Z,12.53
2018-08-16T07:57:22.422Z,10.03
2018-08-16T08:02:25.590Z,8.43
2018-08-16T08:07:28.813Z,10.30
2018-08-16T08:12:31.954Z,8.40
2018-08-16T08:17:35.141Z,8.43
2018-08-16T08:22:38.235Z,8.47
2018-08-16T08:27:41.494Z,17.27
2018-08-16T08:32:44.633Z,8.60
2018-08-16T08:38:15.285Z,6.17
2018-08-16T08:43:35.626Z,5.67
2018-08-16T08:48:38.655Z,5.60
2018-08-16T08:54:57.026Z,5.43
2018-08-16T09:00:00.161Z,8.17
2018-08-16T09:05:04.150Z,13.00
2018-08-16T09:11:21.582Z,5.20
2018-08-16T09:16:28.047Z,9.57
2018-08-16T09:21:32.912Z,3.97
2018-08-16T09:26:40.048Z,5.80
2018-08-16T09:32:06.288Z,5.00
2018-08-16T09:37:11.203Z,6.03
2018-08-16T09:42:14.305Z,4.40
2018-08-16T09:47:34.560Z,5.97
2018-08-16T09:52:37.610Z,4.63
2018-08-16T09:57:40.630Z,4.17
2018-08-16T10:02:43.695Z,4.60
2018-08-16T10:07:46.771Z,5.43
2018-08-16T10:12:49.802Z,7.03
2018-08-16T10:17:52.902Z,6.43
2018-08-16T10:22:55.942Z,5.40
2018-08-16T10:27:58.989Z,4.10
2018-08-16T10:33:02.018Z,3.63
2018-08-16T10:38:05.382Z,3.73
2018-08-16T10:43:08.484Z,7.10
2018-08-16T10:48:11.472Z,3.70
2018-08-16T10:53:14.730Z,3.33
2018-08-16T10:58:17.870Z,3.33
2018-08-16T11:03:21.847Z,3.50
2018-08-16T11:08:25.298Z,3.20
2018-08-16T11:13:28.385Z,3.23
2018-08-16T11:18:31.570Z,3.47
2018-08-16T11:23:34.620Z,4.57
2018-08-16T11:28:39.294Z,4.93
2018-08-16T11:33:42.432Z,4.23
2018-08-16T11:38:45.477Z,3.33
2018-08-16T11:43:48.561Z,7.20
2018-08-16T11:48:51.639Z,4.80
2018-08-16T11:53:54.773Z,3.37
2018-08-16T11:58:57.910Z,3.47
2018-08-16T12:04:01.386Z,11.73
2018-08-16T12:09:08.430Z,3.33
2018-08-16T12:14:11.766Z,4.03
2018-08-16T12:19:14.882Z,3.93
2018-08-16T12:24:17.950Z,4.60
2018-08-16T12:29:21.685Z,3.60
2018-08-16T12:34:24.725Z,3.30
2018-08-16T12:39:27.783Z,3.67
2018-08-16T12:44:30.835Z,4.40
2018-08-16T12:49:34.012Z,4.90
2018-08-16T12:54:37.094Z,3.80
2018-08-16T12:59:40.161Z,5.63
2018-08-16T13:04:43.296Z,3.10
2018-08-16T13:09:46.431Z,2.93
2018-08-16T13:14:49.544Z,3.43
2018-08-16T13:19:52.590Z,5.00
2018-08-16T13:24:55.630Z,4.33
2018-08-16T13:29:58.809Z,3.63
2018-08-16T13:35:01.922Z,9.70
2018-08-16T13:40:06.757Z,2.60
2018-08-16T13:45:09.805Z,3.93
2018-08-16T13:50:12.863Z,6.10
2018-08-16T13:55:17.362Z,2.80
2018-08-16T14:00:20.542Z,5.43
2018-08-16T14:05:23.606Z,2.90
2018-08-16T14:10:27.041Z,2.70
2018-08-16T14:15:30.336Z,2.70
2018-08-16T14:20:33.405Z,3.00
2018-08-16T14:25:36.490Z,4.90
2018-08-16T14:30:39.705Z,3.00
2018-08-16T14:35:42.699Z,3.03
2018-08-16T14:40:45.703Z,2.60
2018-08-16T14:45:48.751Z,3.27
2018-08-16T14:50:51.811Z,3.37
2018-08-16T14:55:54.842Z,3.00
2018-08-16T15:00:57.952Z,4.37
2018-08-16T15:06:00.991Z,4.50
2018-08-16T15:11:04.090Z,4.13
2018-08-16T15:16:07.308Z,3.17
2018-08-16T15:21:10.518Z,3.20
2018-08-16T15:26:13.558Z,3.10
2018-08-16T15:31:16.732Z,3.20
2018-08-16T15:36:19.830Z,3.20
2018-08-16T15:41:24.067Z,3.07
2018-08-16T15:46:28.665Z,8.83
2018-08-16T15:51:31.911Z,3.17
2018-08-16T15:56:34.980Z,6.37
2018-08-16T16:01:38.224Z,3.10
2018-08-16T16:06:41.407Z,3.10
2018-08-16T16:11:46.276Z,3.20
2018-08-16T16:16:49.479Z,3.37
2018-08-16T16:21:52.558Z,2.93
2018-08-16T16:26:55.620Z,3.33
2018-08-16T16:32:00.654Z,3.47
2018-08-16T16:37:03.859Z,12.50
2018-08-16T16:42:07.427Z,4.07
2018-08-16T16:47:10.946Z,3.57
2018-08-16T16:52:14.094Z,4.07
2018-08-16T16:57:17.244Z,3.80
2018-08-16T17:02:20.361Z,4.33
2018-08-16T17:07:23.692Z,5.80
2018-08-16T17:12:26.772Z,5.30
2018-08-16T17:17:30.281Z,6.60
2018-08-16T17:22:33.572Z,3.77
2018-08-16T17:27:36.595Z,6.07
2018-08-16T17:32:39.895Z,7.10
2018-08-16T17:37:42.992Z,13.53
2018-08-16T17:42:46.157Z,8.37
2018-08-16T17:47:49.349Z,5.23
2018-08-16T17:52:52.642Z,6.50
2018-08-16T17:57:55.818Z,13.43
2018-08-16T18:02:59.111Z,7.37
2018-08-16T18:08:02.513Z,10.33
2018-08-16T18:13:06.096Z,8.70
2018-08-16T18:18:09.623Z,11.20
2018-08-16T18:23:12.822Z,9.90
2018-08-16T18:28:15.999Z,8.43
2018-08-16T18:33:19.304Z,14.13
2018-08-16T18:38:22.827Z,10.30
2018-08-16T18:43:26.234Z,16.20
2018-08-16T18:48:29.503Z,16.53
2018-08-16T18:53:32.921Z,16.03
2018-08-16T18:58:35.986Z,15.70
2018-08-16T19:03:39.062Z,17.97
2018-08-16T19:08:42.177Z,13.73
2018-08-16T19:13:45.402Z,18.83
2018-08-16T19:18:48.514Z,15.50
2018-08-16T19:23:51.651Z,23.57
2018-08-16T19:28:54.873Z,14.40
2018-08-16T19:33:58.141Z,17.60
2018-08-16T19:39:01.904Z,16.93
2018-08-16T19:44:05.930Z,20.93
2018-08-16T19:49:11.092Z,13.63
2018-08-16T19:54:14.699Z,17.90
2018-08-16T19:59:17.823Z,10.93
2018-08-16T20:04:21.120Z,15.20
2018-08-16T20:09:24.604Z,14.67
2018-08-16T20:14:27.710Z,22.33
2018-08-16T20:19:32.191Z,14.30
2018-08-16T20:24:35.540Z,17.20
2018-08-16T20:29:38.913Z,14.23
2018-08-16T20:34:42.941Z,15.80
2018-08-16T20:39:47.553Z,10.70
2018-08-16T20:44:50.906Z,10.70
2018-08-16T20:49:53.908Z,14.30
2018-08-16T20:54:56.948Z,11.40
2018-08-16T21:00:00.017Z,11.63
2018-08-16T21:05:03.149Z,13.03
2018-08-16T21:10:07.551Z,12.60
2018-08-16T21:15:11.410Z,13.37
2018-08-16T21:20:14.514Z,15.27
2018-08-16T21:25:17.689Z,15.93
2018-08-16T21:30:20.757Z,17.33
2018-08-16T21:35:23.809Z,14.73
2018-08-16T21:40:26.913Z,14.20
2018-08-16T21:45:30.043Z,13.20
2018-08-16T21:50:33.074Z,15.97
2018-08-16T21:55:36.098Z,16.03
2018-08-16T22:00:53.219Z,14.97
2018-08-16T22:05:59.193Z,14.20
2018-08-16T22:11:02.229Z,14.27
2018-08-16T22:16:05.569Z,15.20
2018-08-16T22:21:08.993Z,12.60
2018-08-16T22:26:12.144Z,14.93
2018-08-16T22:31:15.133Z,15.67
2018-08-16T22:36:18.202Z,13.97
2018-08-16T22:41:22.235Z,15.83
2018-08-16T22:46:25.329Z,15.17
2018-08-16T22:51:28.333Z,11.90
2018-08-16T22:56:31.391Z,15.70
2018-08-16T23:01:34.438Z,26.10
2018-08-16T23:06:37.530Z,15.10
2018-08-16T23:11:40.558Z,14.07
2018-08-16T23:16:43.572Z,12.03
2018-08-16T23:21:46.554Z,14.70
2018-08-16T23:26:49.742Z,19.20
2018-08-16T23:31:52.743Z,12.60
2018-08-16T23:36:55.792Z,14.50
2018-08-16T23:41:58.872Z,12.50
2018-08-16T23:47:01.978Z,12.93
2018-08-16T23:52:05.054Z,15.73
2018-08-16T23:57:08.199Z,14.30
